Terminal Aerodrome Forecast
Issued by NWS Boise, ID

Home | Current Version | Previous Version | Text Only | Print | Product List | Glossary On
Versions: 1 2 3 4 5 6 7 8 9 10 11 12 13 14 15 16
000
FTUS45 KBOI 211126
TAFBOI
TAF
KBOI 211126Z 2112/2212 13005KT P6SM SCT050 OVC070
     FM211600 13007KT P6SM VCSH OVC050
     FM212100 13010KT P6SM -RA OVC050=

USA.gov is the U.S. government's official web portal to all federal, state and local government web resources and services.